Accueil
METAR-TAF:

METAR-TAF

Aéroports :

Wadesboro, Caroline du Nord, États-Unis

latitude: 35-01-14N, longitude: 080-04-38W, altitude: 91 m

Observation

Le bulletin a été fait il y a 29 minutes, à 19:15 UTC
Vent 4 kt de sud-ouest
Température 32°C
Humidité 56%
Pression 1011 hPa
Visibilité: 16.1 km
Nuages épars à une hauteur de 4300 ft
Nuages épars à une hauteur de 6000 ft
Nuages fragmentés à une hauteur de 8000 ft

METAR: KAFP 101915Z AUTO 22004KT 10SM SCT043 SCT060 BKN080 32/22 A2985 RMK AO2 T03210220

Heure: 15:44 (19:44 UTC)


TAF: absent

Observations et prévisions météorologiques de plus de 4000 aéroports (messages METAR et TAF).

Les stations disponibles sont représentées par des disques jaunes et rouges sur la carte.

Passer la souris dessus pour voir le nom de la station.

Cliquer dessus pour voir les observations et prévisions météorologiques.

Pour changer de carte: cliquez sur les boutons verts avec une croix noire pour zoomer, sur le bouton vert avec un tiret pour effectuer un zoom arrière, ou sur les flèches vertes pour les cartes adjacentes.


METAR-TAF: